sensor_id;sensor_type;location;lat;lon;timestamp;P1;durP1;ratioP1;P2;durP2;ratioP2
21444;SDS011;10883;51.946;20.140;2023-03-23T00:01:07;44.35;;;25.00;;
21444;SDS011;10883;51.946;20.140;2023-03-23T00:03:44;41.33;;;24.38;;
21444;SDS011;10883;51.946;20.140;2023-03-23T00:06:12;45.22;;;25.48;;
21444;SDS011;10883;51.946;20.140;2023-03-23T00:08:42;44.58;;;25.15;;
21444;SDS011;10883;51.946;20.140;2023-03-23T00:11:15;47.67;;;25.60;;
21444;SDS011;10883;51.946;20.140;2023-03-23T00:13:41;42.47;;;25.23;;
21444;SDS011;10883;51.946;20.140;2023-03-23T00:16:08;44.45;;;26.20;;
21444;SDS011;10883;51.946;20.140;2023-03-23T00:18:46;47.00;;;24.95;;
21444;SDS011;10883;51.946;20.140;2023-03-23T00:21:13;44.58;;;25.02;;
21444;SDS011;10883;51.946;20.140;2023-03-23T00:23:39;43.90;;;26.00;;
21444;SDS011;10883;51.946;20.140;2023-03-23T00:26:05;46.10;;;26.23;;
21444;SDS011;10883;51.946;20.140;2023-03-23T00:28:32;51.08;;;26.17;;
21444;SDS011;10883;51.946;20.140;2023-03-23T00:30:58;44.40;;;25.77;;
21444;SDS011;10883;51.946;20.140;2023-03-23T00:33:26;46.35;;;25.17;;
21444;SDS011;10883;51.946;20.140;2023-03-23T00:35:53;46.92;;;24.77;;
21444;SDS011;10883;51.946;20.140;2023-03-23T00:38:20;42.65;;;25.02;;
21444;SDS011;10883;51.946;20.140;2023-03-23T00:40:47;40.60;;;23.45;;
21444;SDS011;10883;51.946;20.140;2023-03-23T00:43:14;48.00;;;25.30;;
21444;SDS011;10883;51.946;20.140;2023-03-23T00:45:41;45.15;;;25.50;;
21444;SDS011;10883;51.946;20.140;2023-03-23T00:48:10;49.22;;;27.27;;
21444;SDS011;10883;51.946;20.140;2023-03-23T00:50:38;59.33;;;35.78;;
21444;SDS011;10883;51.946;20.140;2023-03-23T00:53:04;48.47;;;27.38;;
21444;SDS011;10883;51.946;20.140;2023-03-23T00:55:30;46.30;;;27.13;;
21444;SDS011;10883;51.946;20.140;2023-03-23T00:57:56;43.38;;;24.65;;
21444;SDS011;10883;51.946;20.140;2023-03-23T01:00:22;41.63;;;23.85;;
21444;SDS011;10883;51.946;20.140;2023-03-23T01:02:48;43.80;;;23.15;;
21444;SDS011;10883;51.946;20.140;2023-03-23T01:05:20;41.33;;;23.45;;
21444;SDS011;10883;51.946;20.140;2023-03-23T01:07:46;40.72;;;23.40;;
21444;SDS011;10883;51.946;20.140;2023-03-23T01:10:13;40.47;;;23.83;;
21444;SDS011;10883;51.946;20.140;2023-03-23T01:12:43;45.90;;;25.02;;
21444;SDS011;10883;51.946;20.140;2023-03-23T01:15:14;40.72;;;22.63;;
21444;SDS011;10883;51.946;20.140;2023-03-23T01:17:42;41.65;;;24.45;;
21444;SDS011;10883;51.946;20.140;2023-03-23T01:20:09;38.38;;;23.40;;
21444;SDS011;10883;51.946;20.140;2023-03-23T01:22:37;39.28;;;23.45;;
21444;SDS011;10883;51.946;20.140;2023-03-23T01:25:04;44.42;;;23.70;;
21444;SDS011;10883;51.946;20.140;2023-03-23T01:27:30;41.65;;;23.25;;
21444;SDS011;10883;51.946;20.140;2023-03-23T01:29:56;43.70;;;24.15;;
21444;SDS011;10883;51.946;20.140;2023-03-23T01:32:23;43.65;;;24.25;;
21444;SDS011;10883;51.946;20.140;2023-03-23T01:34:49;41.78;;;24.08;;
21444;SDS011;10883;51.946;20.140;2023-03-23T01:37:15;42.38;;;24.15;;
21444;SDS011;10883;51.946;20.140;2023-03-23T01:39:41;38.33;;;22.80;;
21444;SDS011;10883;51.946;20.140;2023-03-23T01:42:08;44.65;;;23.27;;
21444;SDS011;10883;51.946;20.140;2023-03-23T01:47:02;40.20;;;23.13;;
21444;SDS011;10883;51.946;20.140;2023-03-23T01:49:32;36.50;;;22.75;;
21444;SDS011;10883;51.946;20.140;2023-03-23T01:52:02;39.60;;;21.70;;
21444;SDS011;10883;51.946;20.140;2023-03-23T01:54:33;37.35;;;21.98;;
21444;SDS011;10883;51.946;20.140;2023-03-23T01:57:34;36.50;;;22.25;;
21444;SDS011;10883;51.946;20.140;2023-03-23T01:59:55;36.33;;;22.13;;
21444;SDS011;10883;51.946;20.140;2023-03-23T02:02:24;41.10;;;23.13;;
21444;SDS011;10883;51.946;20.140;2023-03-23T02:04:51;37.85;;;22.00;;
21444;SDS011;10883;51.946;20.140;2023-03-23T02:07:21;44.85;;;23.08;;
21444;SDS011;10883;51.946;20.140;2023-03-23T02:09:49;34.08;;;20.60;;
21444;SDS011;10883;51.946;20.140;2023-03-23T02:12:16;34.67;;;20.25;;
21444;SDS011;10883;51.946;20.140;2023-03-23T02:14:42;34.03;;;20.58;;
21444;SDS011;10883;51.946;20.140;2023-03-23T02:17:14;35.03;;;20.10;;
21444;SDS011;10883;51.946;20.140;2023-03-23T02:28:58;33.60;;;20.13;;
21444;SDS011;10883;51.946;20.140;2023-03-23T02:34:10;33.10;;;18.70;;
21444;SDS011;10883;51.946;20.140;2023-03-23T02:36:52;37.33;;;19.40;;
21444;SDS011;10883;51.946;20.140;2023-03-23T02:39:33;33.83;;;20.15;;
21444;SDS011;10883;51.946;20.140;2023-03-23T02:42:08;31.23;;;18.90;;
21444;SDS011;10883;51.946;20.140;2023-03-23T02:44:39;34.05;;;19.70;;
21444;SDS011;10883;51.946;20.140;2023-03-23T02:47:08;42.20;;;20.05;;
21444;SDS011;10883;51.946;20.140;2023-03-23T02:49:39;30.98;;;18.35;;
21444;SDS011;10883;51.946;20.140;2023-03-23T02:52:09;30.58;;;18.95;;
21444;SDS011;10883;51.946;20.140;2023-03-23T02:54:40;31.48;;;17.33;;
21444;SDS011;10883;51.946;20.140;2023-03-23T02:57:09;29.95;;;18.10;;
21444;SDS011;10883;51.946;20.140;2023-03-23T02:59:36;30.08;;;18.83;;
21444;SDS011;10883;51.946;20.140;2023-03-23T03:02:04;31.92;;;17.25;;
21444;SDS011;10883;51.946;20.140;2023-03-23T03:04:38;33.90;;;18.67;;
21444;SDS011;10883;51.946;20.140;2023-03-23T03:07:10;34.35;;;18.17;;
21444;SDS011;10883;51.946;20.140;2023-03-23T03:09:59;34.35;;;19.65;;
21444;SDS011;10883;51.946;20.140;2023-03-23T03:21:01;31.20;;;18.63;;
21444;SDS011;10883;51.946;20.140;2023-03-23T03:23:35;33.05;;;18.75;;
21444;SDS011;10883;51.946;20.140;2023-03-23T03:26:03;30.65;;;18.73;;
21444;SDS011;10883;51.946;20.140;2023-03-23T03:28:31;36.50;;;21.73;;
21444;SDS011;10883;51.946;20.140;2023-03-23T03:30:58;47.80;;;23.70;;
21444;SDS011;10883;51.946;20.140;2023-03-23T03:33:27;34.25;;;20.48;;
21444;SDS011;10883;51.946;20.140;2023-03-23T03:35:56;29.77;;;17.42;;
21444;SDS011;10883;51.946;20.140;2023-03-23T03:38:24;31.40;;;17.08;;
21444;SDS011;10883;51.946;20.140;2023-03-23T03:40:50;29.88;;;17.50;;
21444;SDS011;10883;51.946;20.140;2023-03-23T03:43:17;29.02;;;17.13;;
21444;SDS011;10883;51.946;20.140;2023-03-23T03:45:43;25.02;;;15.30;;
21444;SDS011;10883;51.946;20.140;2023-03-23T03:48:09;26.10;;;15.98;;
21444;SDS011;10883;51.946;20.140;2023-03-23T03:50:35;27.98;;;17.38;;
21444;SDS011;10883;51.946;20.140;2023-03-23T03:53:01;27.45;;;16.65;;
21444;SDS011;10883;51.946;20.140;2023-03-23T03:55:28;29.15;;;17.15;;
21444;SDS011;10883;51.946;20.140;2023-03-23T03:57:57;25.17;;;14.65;;
21444;SDS011;10883;51.946;20.140;2023-03-23T04:00:23;27.40;;;15.98;;
21444;SDS011;10883;51.946;20.140;2023-03-23T04:02:49;24.40;;;15.00;;
21444;SDS011;10883;51.946;20.140;2023-03-23T04:05:20;33.25;;;17.85;;
21444;SDS011;10883;51.946;20.140;2023-03-23T04:07:47;26.00;;;16.42;;
21444;SDS011;10883;51.946;20.140;2023-03-23T04:10:17;26.73;;;16.13;;
21444;SDS011;10883;51.946;20.140;2023-03-23T04:12:47;22.50;;;14.85;;
21444;SDS011;10883;51.946;20.140;2023-03-23T04:15:13;24.60;;;15.35;;
21444;SDS011;10883;51.946;20.140;2023-03-23T04:17:39;26.65;;;16.15;;
21444;SDS011;10883;51.946;20.140;2023-03-23T04:20:06;24.85;;;15.38;;
21444;SDS011;10883;51.946;20.140;2023-03-23T04:22:41;25.92;;;15.23;;
21444;SDS011;10883;51.946;20.140;2023-03-23T04:25:09;26.45;;;15.88;;
21444;SDS011;10883;51.946;20.140;2023-03-23T04:27:37;26.65;;;14.95;;
21444;SDS011;10883;51.946;20.140;2023-03-23T04:30:04;29.17;;;16.23;;
21444;SDS011;10883;51.946;20.140;2023-03-23T04:32:31;25.23;;;15.15;;
21444;SDS011;10883;51.946;20.140;2023-03-23T04:34:57;29.02;;;15.57;;
21444;SDS011;10883;51.946;20.140;2023-03-23T04:37:27;22.95;;;15.02;;
21444;SDS011;10883;51.946;20.140;2023-03-23T04:39:59;25.60;;;15.23;;
21444;SDS011;10883;51.946;20.140;2023-03-23T04:42:29;26.58;;;15.30;;
21444;SDS011;10883;51.946;20.140;2023-03-23T04:44:56;21.67;;;14.32;;
21444;SDS011;10883;51.946;20.140;2023-03-23T04:47:23;22.48;;;13.38;;
21444;SDS011;10883;51.946;20.140;2023-03-23T04:49:54;27.70;;;14.90;;
21444;SDS011;10883;51.946;20.140;2023-03-23T04:52:22;23.08;;;14.43;;
21444;SDS011;10883;51.946;20.140;2023-03-23T04:54:53;26.35;;;14.02;;
21444;SDS011;10883;51.946;20.140;2023-03-23T04:57:21;25.50;;;14.52;;
21444;SDS011;10883;51.946;20.140;2023-03-23T04:59:48;28.58;;;15.95;;
21444;SDS011;10883;51.946;20.140;2023-03-23T05:02:13;29.88;;;15.40;;
21444;SDS011;10883;51.946;20.140;2023-03-23T05:04:40;29.73;;;16.33;;
21444;SDS011;10883;51.946;20.140;2023-03-23T05:07:09;23.70;;;14.02;;
21444;SDS011;10883;51.946;20.140;2023-03-23T05:09:36;19.55;;;12.80;;
21444;SDS011;10883;51.946;20.140;2023-03-23T05:12:05;23.02;;;13.10;;
21444;SDS011;10883;51.946;20.140;2023-03-23T05:14:32;21.35;;;13.43;;
21444;SDS011;10883;51.946;20.140;2023-03-23T05:16:58;18.98;;;12.40;;
21444;SDS011;10883;51.946;20.140;2023-03-23T05:19:23;21.63;;;13.13;;
21444;SDS011;10883;51.946;20.140;2023-03-23T05:21:49;20.52;;;13.38;;
21444;SDS011;10883;51.946;20.140;2023-03-23T05:24:15;18.40;;;12.45;;
21444;SDS011;10883;51.946;20.140;2023-03-23T05:26:41;21.00;;;11.55;;
21444;SDS011;10883;51.946;20.140;2023-03-23T05:29:07;17.75;;;11.82;;
21444;SDS011;10883;51.946;20.140;2023-03-23T05:31:32;20.92;;;12.05;;
21444;SDS011;10883;51.946;20.140;2023-03-23T05:33:58;17.77;;;11.48;;
21444;SDS011;10883;51.946;20.140;2023-03-23T05:36:25;21.90;;;12.57;;
21444;SDS011;10883;51.946;20.140;2023-03-23T05:38:51;20.05;;;12.18;;
21444;SDS011;10883;51.946;20.140;2023-03-23T05:41:18;18.83;;;12.43;;
21444;SDS011;10883;51.946;20.140;2023-03-23T05:43:46;17.48;;;11.52;;
21444;SDS011;10883;51.946;20.140;2023-03-23T05:46:12;18.60;;;11.07;;
21444;SDS011;10883;51.946;20.140;2023-03-23T05:48:38;19.05;;;11.10;;
21444;SDS011;10883;51.946;20.140;2023-03-23T05:51:04;17.23;;;11.43;;
21444;SDS011;10883;51.946;20.140;2023-03-23T05:53:29;18.35;;;11.65;;
21444;SDS011;10883;51.946;20.140;2023-03-23T05:55:59;19.33;;;11.68;;
21444;SDS011;10883;51.946;20.140;2023-03-23T05:58:25;16.15;;;10.52;;
21444;SDS011;10883;51.946;20.140;2023-03-23T06:00:51;20.85;;;10.85;;
21444;SDS011;10883;51.946;20.140;2023-03-23T06:03:17;18.48;;;11.32;;
21444;SDS011;10883;51.946;20.140;2023-03-23T06:05:43;33.10;;;16.77;;
21444;SDS011;10883;51.946;20.140;2023-03-23T06:08:10;19.98;;;12.48;;
21444;SDS011;10883;51.946;20.140;2023-03-23T06:10:36;20.95;;;12.25;;
21444;SDS011;10883;51.946;20.140;2023-03-23T06:13:03;20.55;;;13.27;;
21444;SDS011;10883;51.946;20.140;2023-03-23T06:15:30;19.98;;;12.85;;
21444;SDS011;10883;51.946;20.140;2023-03-23T06:18:03;21.15;;;12.60;;
21444;SDS011;10883;51.946;20.140;2023-03-23T06:20:30;22.88;;;13.10;;
21444;SDS011;10883;51.946;20.140;2023-03-23T06:22:57;15.73;;;11.70;;
21444;SDS011;10883;51.946;20.140;2023-03-23T06:25:24;22.33;;;13.15;;
21444;SDS011;10883;51.946;20.140;2023-03-23T06:27:49;19.73;;;12.88;;
21444;SDS011;10883;51.946;20.140;2023-03-23T06:30:17;28.58;;;15.13;;
21444;SDS011;10883;51.946;20.140;2023-03-23T06:32:43;20.40;;;12.57;;
21444;SDS011;10883;51.946;20.140;2023-03-23T06:35:11;21.42;;;12.75;;
21444;SDS011;10883;51.946;20.140;2023-03-23T06:37:37;21.25;;;12.40;;
21444;SDS011;10883;51.946;20.140;2023-03-23T06:40:04;18.02;;;12.82;;
21444;SDS011;10883;51.946;20.140;2023-03-23T06:42:34;24.95;;;14.48;;
21444;SDS011;10883;51.946;20.140;2023-03-23T06:45:01;22.27;;;14.63;;
21444;SDS011;10883;51.946;20.140;2023-03-23T06:47:28;22.67;;;13.82;;
21444;SDS011;10883;51.946;20.140;2023-03-23T06:49:57;21.63;;;13.82;;
21444;SDS011;10883;51.946;20.140;2023-03-23T06:52:24;19.80;;;13.15;;
21444;SDS011;10883;51.946;20.140;2023-03-23T06:54:51;25.95;;;14.43;;
21444;SDS011;10883;51.946;20.140;2023-03-23T06:57:17;25.27;;;14.55;;
21444;SDS011;10883;51.946;20.140;2023-03-23T06:59:43;23.75;;;14.00;;
21444;SDS011;10883;51.946;20.140;2023-03-23T07:02:13;22.98;;;14.57;;
21444;SDS011;10883;51.946;20.140;2023-03-23T07:04:39;21.45;;;13.23;;
21444;SDS011;10883;51.946;20.140;2023-03-23T07:07:07;22.83;;;13.32;;
21444;SDS011;10883;51.946;20.140;2023-03-23T07:09:35;23.75;;;15.90;;
21444;SDS011;10883;51.946;20.140;2023-03-23T07:12:01;33.83;;;18.27;;
21444;SDS011;10883;51.946;20.140;2023-03-23T07:14:28;22.27;;;14.32;;
21444;SDS011;10883;51.946;20.140;2023-03-23T07:16:54;23.23;;;14.75;;
21444;SDS011;10883;51.946;20.140;2023-03-23T07:19:21;24.65;;;14.38;;
21444;SDS011;10883;51.946;20.140;2023-03-23T07:21:46;25.15;;;15.27;;
21444;SDS011;10883;51.946;20.140;2023-03-23T07:24:12;22.55;;;14.80;;
21444;SDS011;10883;51.946;20.140;2023-03-23T07:26:41;25.58;;;13.88;;
21444;SDS011;10883;51.946;20.140;2023-03-23T07:29:08;21.70;;;12.55;;
21444;SDS011;10883;51.946;20.140;2023-03-23T07:31:34;29.23;;;19.48;;
21444;SDS011;10883;51.946;20.140;2023-03-23T07:34:01;23.80;;;16.10;;
21444;SDS011;10883;51.946;20.140;2023-03-23T07:36:28;22.80;;;14.88;;
21444;SDS011;10883;51.946;20.140;2023-03-23T07:38:55;27.88;;;15.40;;
21444;SDS011;10883;51.946;20.140;2023-03-23T07:41:21;24.77;;;14.90;;
21444;SDS011;10883;51.946;20.140;2023-03-23T07:43:47;22.63;;;12.75;;
21444;SDS011;10883;51.946;20.140;2023-03-23T07:46:13;20.45;;;12.27;;
21444;SDS011;10883;51.946;20.140;2023-03-23T07:48:39;16.60;;;11.20;;
21444;SDS011;10883;51.946;20.140;2023-03-23T07:51:05;20.00;;;12.00;;
21444;SDS011;10883;51.946;20.140;2023-03-23T07:53:32;16.42;;;10.10;;
21444;SDS011;10883;51.946;20.140;2023-03-23T07:55:58;18.85;;;11.57;;
21444;SDS011;10883;51.946;20.140;2023-03-23T07:58:24;16.23;;;9.88;;
21444;SDS011;10883;51.946;20.140;2023-03-23T08:00:51;16.30;;;10.40;;
21444;SDS011;10883;51.946;20.140;2023-03-23T08:03:17;16.70;;;10.45;;
21444;SDS011;10883;51.946;20.140;2023-03-23T08:05:43;15.20;;;10.27;;
21444;SDS011;10883;51.946;20.140;2023-03-23T08:08:09;17.80;;;10.57;;
21444;SDS011;10883;51.946;20.140;2023-03-23T08:10:35;17.67;;;11.60;;
21444;SDS011;10883;51.946;20.140;2023-03-23T08:13:02;21.48;;;11.98;;
21444;SDS011;10883;51.946;20.140;2023-03-23T08:15:28;24.77;;;13.75;;
21444;SDS011;10883;51.946;20.140;2023-03-23T08:17:54;13.27;;;9.50;;
21444;SDS011;10883;51.946;20.140;2023-03-23T08:20:21;15.30;;;10.13;;
21444;SDS011;10883;51.946;20.140;2023-03-23T08:22:53;18.10;;;9.77;;
21444;SDS011;10883;51.946;20.140;2023-03-23T08:25:21;15.52;;;9.95;;
21444;SDS011;10883;51.946;20.140;2023-03-23T08:27:47;14.70;;;11.07;;
21444;SDS011;10883;51.946;20.140;2023-03-23T08:30:16;19.20;;;10.38;;
21444;SDS011;10883;51.946;20.140;2023-03-23T08:32:47;16.08;;;9.45;;
21444;SDS011;10883;51.946;20.140;2023-03-23T08:35:14;15.63;;;9.20;;
21444;SDS011;10883;51.946;20.140;2023-03-23T08:37:41;14.95;;;9.07;;
21444;SDS011;10883;51.946;20.140;2023-03-23T08:40:07;13.18;;;9.20;;
21444;SDS011;10883;51.946;20.140;2023-03-23T08:42:38;17.40;;;10.50;;
21444;SDS011;10883;51.946;20.140;2023-03-23T08:45:06;16.40;;;10.23;;
21444;SDS011;10883;51.946;20.140;2023-03-23T08:47:34;18.40;;;10.05;;
21444;SDS011;10883;51.946;20.140;2023-03-23T08:50:00;14.65;;;9.70;;
21444;SDS011;10883;51.946;20.140;2023-03-23T08:52:28;17.92;;;11.10;;
21444;SDS011;10883;51.946;20.140;2023-03-23T08:54:54;18.65;;;10.70;;
21444;SDS011;10883;51.946;20.140;2023-03-23T08:57:22;16.45;;;10.70;;
21444;SDS011;10883;51.946;20.140;2023-03-23T08:59:49;26.13;;;11.82;;
21444;SDS011;10883;51.946;20.140;2023-03-23T09:02:15;22.05;;;11.10;;
21444;SDS011;10883;51.946;20.140;2023-03-23T09:04:41;17.38;;;10.10;;
21444;SDS011;10883;51.946;20.140;2023-03-23T09:07:10;19.30;;;11.00;;
21444;SDS011;10883;51.946;20.140;2023-03-23T09:09:38;18.63;;;10.23;;
21444;SDS011;10883;51.946;20.140;2023-03-23T09:12:08;16.00;;;10.57;;
21444;SDS011;10883;51.946;20.140;2023-03-23T09:14:34;16.27;;;8.93;;
21444;SDS011;10883;51.946;20.140;2023-03-23T09:17:01;13.98;;;8.25;;
21444;SDS011;10883;51.946;20.140;2023-03-23T09:19:28;13.13;;;8.85;;
21444;SDS011;10883;51.946;20.140;2023-03-23T09:21:54;12.65;;;8.13;;
21444;SDS011;10883;51.946;20.140;2023-03-23T09:24:20;10.20;;;7.05;;
21444;SDS011;10883;51.946;20.140;2023-03-23T09:26:46;11.27;;;8.07;;
21444;SDS011;10883;51.946;20.140;2023-03-23T09:29:12;10.48;;;7.90;;
21444;SDS011;10883;51.946;20.140;2023-03-23T09:31:39;12.73;;;9.05;;
21444;SDS011;10883;51.946;20.140;2023-03-23T09:34:06;17.40;;;11.55;;
21444;SDS011;10883;51.946;20.140;2023-03-23T09:36:35;12.93;;;9.05;;
21444;SDS011;10883;51.946;20.140;2023-03-23T09:39:01;13.82;;;8.13;;
21444;SDS011;10883;51.946;20.140;2023-03-23T09:41:54;11.45;;;6.90;;
21444;SDS011;10883;51.946;20.140;2023-03-23T09:49:50;8.68;;;6.05;;
21444;SDS011;10883;51.946;20.140;2023-03-23T09:52:37;12.63;;;6.88;;
21444;SDS011;10883;51.946;20.140;2023-03-23T09:55:14;9.73;;;5.75;;
21444;SDS011;10883;51.946;20.140;2023-03-23T09:57:49;7.93;;;5.78;;
21444;SDS011;10883;51.946;20.140;2023-03-23T10:00:47;8.90;;;6.25;;
21444;SDS011;10883;51.946;20.140;2023-03-23T10:03:17;9.73;;;5.95;;
21444;SDS011;10883;51.946;20.140;2023-03-23T10:05:51;11.52;;;5.82;;
21444;SDS011;10883;51.946;20.140;2023-03-23T10:08:22;8.18;;;5.05;;
21444;SDS011;10883;51.946;20.140;2023-03-23T10:16:04;7.82;;;4.43;;
21444;SDS011;10883;51.946;20.140;2023-03-23T10:18:39;5.85;;;4.28;;
21444;SDS011;10883;51.946;20.140;2023-03-23T10:21:11;4.82;;;3.95;;
21444;SDS011;10883;51.946;20.140;2023-03-23T10:29:25;5.20;;;4.18;;
21444;SDS011;10883;51.946;20.140;2023-03-23T10:31:57;4.90;;;3.75;;
21444;SDS011;10883;51.946;20.140;2023-03-23T10:34:48;6.18;;;4.13;;
21444;SDS011;10883;51.946;20.140;2023-03-23T10:37:37;5.97;;;4.28;;
21444;SDS011;10883;51.946;20.140;2023-03-23T10:40:12;6.30;;;4.38;;
21444;SDS011;10883;51.946;20.140;2023-03-23T10:42:41;7.93;;;3.63;;
21444;SDS011;10883;51.946;20.140;2023-03-23T10:45:17;6.32;;;3.58;;
21444;SDS011;10883;51.946;20.140;2023-03-23T10:47:58;5.25;;;4.10;;
21444;SDS011;10883;51.946;20.140;2023-03-23T10:50:36;7.55;;;4.55;;
21444;SDS011;10883;51.946;20.140;2023-03-23T10:53:11;16.63;;;9.40;;
21444;SDS011;10883;51.946;20.140;2023-03-23T10:55:42;6.53;;;4.93;;
21444;SDS011;10883;51.946;20.140;2023-03-23T10:58:21;6.18;;;4.30;;
21444;SDS011;10883;51.946;20.140;2023-03-23T11:00:49;8.75;;;3.50;;
21444;SDS011;10883;51.946;20.140;2023-03-23T11:05:43;4.57;;;3.22;;
21444;SDS011;10883;51.946;20.140;2023-03-23T11:08:24;5.93;;;2.45;;
21444;SDS011;10883;51.946;20.140;2023-03-23T11:10:52;8.15;;;3.70;;
21444;SDS011;10883;51.946;20.140;2023-03-23T11:13:21;6.40;;;4.60;;
21444;SDS011;10883;51.946;20.140;2023-03-23T11:15:52;6.47;;;4.07;;
21444;SDS011;10883;51.946;20.140;2023-03-23T11:18:22;13.50;;;8.32;;
21444;SDS011;10883;51.946;20.140;2023-03-23T11:21:08;6.50;;;4.22;;
21444;SDS011;10883;51.946;20.140;2023-03-23T11:23:38;9.70;;;5.43;;
21444;SDS011;10883;51.946;20.140;2023-03-23T11:26:13;6.47;;;4.03;;
21444;SDS011;10883;51.946;20.140;2023-03-23T11:29:11;9.52;;;5.97;;
21444;SDS011;10883;51.946;20.140;2023-03-23T11:37:08;13.57;;;6.63;;
21444;SDS011;10883;51.946;20.140;2023-03-23T11:39:48;9.38;;;4.72;;
21444;SDS011;10883;51.946;20.140;2023-03-23T11:42:20;6.82;;;4.70;;
21444;SDS011;10883;51.946;20.140;2023-03-23T11:44:47;6.75;;;3.75;;
21444;SDS011;10883;51.946;20.140;2023-03-23T11:47:25;10.05;;;4.45;;
21444;SDS011;10883;51.946;20.140;2023-03-23T11:52:25;6.65;;;3.10;;
21444;SDS011;10883;51.946;20.140;2023-03-23T11:55:08;6.55;;;2.95;;
21444;SDS011;10883;51.946;20.140;2023-03-23T11:57:41;6.78;;;2.90;;
21444;SDS011;10883;51.946;20.140;2023-03-23T12:00:17;4.82;;;3.53;;
21444;SDS011;10883;51.946;20.140;2023-03-23T12:08:20;4.93;;;2.90;;
21444;SDS011;10883;51.946;20.140;2023-03-23T12:11:18;3.17;;;2.17;;
21444;SDS011;10883;51.946;20.140;2023-03-23T12:25:00;4.50;;;2.83;;
21444;SDS011;10883;51.946;20.140;2023-03-23T12:33:04;6.75;;;2.92;;
21444;SDS011;10883;51.946;20.140;2023-03-23T12:38:32;4.78;;;2.83;;
21444;SDS011;10883;51.946;20.140;2023-03-23T12:41:18;6.75;;;3.50;;
21444;SDS011;10883;51.946;20.140;2023-03-23T12:44:06;4.03;;;2.65;;
21444;SDS011;10883;51.946;20.140;2023-03-23T12:46:45;6.65;;;3.05;;
21444;SDS011;10883;51.946;20.140;2023-03-23T12:57:32;4.63;;;2.75;;
21444;SDS011;10883;51.946;20.140;2023-03-23T13:00:22;5.38;;;3.10;;
21444;SDS011;10883;51.946;20.140;2023-03-23T13:03:01;5.00;;;2.63;;
21444;SDS011;10883;51.946;20.140;2023-03-23T13:05:36;5.28;;;2.85;;
21444;SDS011;10883;51.946;20.140;2023-03-23T13:08:17;6.68;;;2.97;;
21444;SDS011;10883;51.946;20.140;2023-03-23T13:10:47;4.82;;;3.15;;
21444;SDS011;10883;51.946;20.140;2023-03-23T13:13:18;5.70;;;3.58;;
21444;SDS011;10883;51.946;20.140;2023-03-23T13:15:49;4.28;;;2.85;;
21444;SDS011;10883;51.946;20.140;2023-03-23T13:21:45;2.83;;;2.58;;
21444;SDS011;10883;51.946;20.140;2023-03-23T13:24:15;3.97;;;2.85;;
21444;SDS011;10883;51.946;20.140;2023-03-23T13:26:43;8.02;;;3.30;;
21444;SDS011;10883;51.946;20.140;2023-03-23T13:29:13;6.18;;;3.30;;
21444;SDS011;10883;51.946;20.140;2023-03-23T13:31:49;5.57;;;3.40;;
21444;SDS011;10883;51.946;20.140;2023-03-23T13:34:18;6.00;;;3.50;;
21444;SDS011;10883;51.946;20.140;2023-03-23T13:37:05;5.45;;;3.22;;
21444;SDS011;10883;51.946;20.140;2023-03-23T13:42:19;12.32;;;7.32;;
21444;SDS011;10883;51.946;20.140;2023-03-23T13:49:51;20.73;;;11.07;;
21444;SDS011;10883;51.946;20.140;2023-03-23T13:58:26;28.40;;;17.85;;
21444;SDS011;10883;51.946;20.140;2023-03-23T14:10:58;12.60;;;5.18;;
21444;SDS011;10883;51.946;20.140;2023-03-23T14:13:46;11.20;;;4.90;;
21444;SDS011;10883;51.946;20.140;2023-03-23T14:16:24;18.48;;;9.23;;
21444;SDS011;10883;51.946;20.140;2023-03-23T14:18:57;12.57;;;6.90;;
21444;SDS011;10883;51.946;20.140;2023-03-23T14:21:35;13.43;;;5.80;;
21444;SDS011;10883;51.946;20.140;2023-03-23T14:24:27;15.40;;;11.38;;
21444;SDS011;10883;51.946;20.140;2023-03-23T14:27:01;17.45;;;13.30;;
21444;SDS011;10883;51.946;20.140;2023-03-23T14:29:34;15.73;;;12.52;;
21444;SDS011;10883;51.946;20.140;2023-03-23T14:32:06;13.50;;;7.30;;
21444;SDS011;10883;51.946;20.140;2023-03-23T14:34:35;9.82;;;5.35;;
21444;SDS011;10883;51.946;20.140;2023-03-23T14:37:01;8.23;;;4.32;;
21444;SDS011;10883;51.946;20.140;2023-03-23T14:39:32;7.53;;;3.78;;
21444;SDS011;10883;51.946;20.140;2023-03-23T14:42:01;7.72;;;4.53;;
21444;SDS011;10883;51.946;20.140;2023-03-23T14:44:42;5.78;;;3.85;;
21444;SDS011;10883;51.946;20.140;2023-03-23T14:47:20;6.47;;;3.88;;
21444;SDS011;10883;51.946;20.140;2023-03-23T14:49:58;11.23;;;6.55;;
21444;SDS011;10883;51.946;20.140;2023-03-23T14:52:33;9.05;;;4.30;;
21444;SDS011;10883;51.946;20.140;2023-03-23T14:55:14;10.68;;;4.88;;
21444;SDS011;10883;51.946;20.140;2023-03-23T14:57:44;7.70;;;3.45;;
21444;SDS011;10883;51.946;20.140;2023-03-23T15:00:19;5.70;;;2.65;;
21444;SDS011;10883;51.946;20.140;2023-03-23T15:02:55;11.48;;;4.28;;
21444;SDS011;10883;51.946;20.140;2023-03-23T15:08:02;5.22;;;3.33;;
21444;SDS011;10883;51.946;20.140;2023-03-23T15:10:31;6.95;;;4.30;;
21444;SDS011;10883;51.946;20.140;2023-03-23T15:12:57;4.43;;;3.70;;
21444;SDS011;10883;51.946;20.140;2023-03-23T15:15:28;14.43;;;7.18;;
21444;SDS011;10883;51.946;20.140;2023-03-23T15:17:57;8.70;;;5.47;;
21444;SDS011;10883;51.946;20.140;2023-03-23T15:20:27;4.57;;;3.30;;
21444;SDS011;10883;51.946;20.140;2023-03-23T15:22:54;5.15;;;3.00;;
21444;SDS011;10883;51.946;20.140;2023-03-23T15:25:22;6.85;;;3.53;;
21444;SDS011;10883;51.946;20.140;2023-03-23T15:30:50;5.50;;;2.50;;
21444;SDS011;10883;51.946;20.140;2023-03-23T15:33:18;10.85;;;8.63;;
21444;SDS011;10883;51.946;20.140;2023-03-23T15:35:52;8.32;;;6.90;;
21444;SDS011;10883;51.946;20.140;2023-03-23T15:38:24;11.30;;;9.40;;
21444;SDS011;10883;51.946;20.140;2023-03-23T15:40:53;12.65;;;7.70;;
21444;SDS011;10883;51.946;20.140;2023-03-23T15:43:24;10.10;;;5.47;;
21444;SDS011;10883;51.946;20.140;2023-03-23T15:45:53;9.13;;;4.10;;
21444;SDS011;10883;51.946;20.140;2023-03-23T15:48:50;9.90;;;4.50;;
21444;SDS011;10883;51.946;20.140;2023-03-23T15:51:21;9.40;;;6.18;;
21444;SDS011;10883;51.946;20.140;2023-03-23T15:53:50;7.57;;;4.35;;
21444;SDS011;10883;51.946;20.140;2023-03-23T15:56:17;7.03;;;4.22;;
21444;SDS011;10883;51.946;20.140;2023-03-23T15:58:43;6.90;;;4.22;;
21444;SDS011;10883;51.946;20.140;2023-03-23T16:01:23;5.57;;;3.50;;
21444;SDS011;10883;51.946;20.140;2023-03-23T16:06:24;8.57;;;4.07;;
21444;SDS011;10883;51.946;20.140;2023-03-23T16:08:52;8.48;;;3.63;;
21444;SDS011;10883;51.946;20.140;2023-03-23T16:11:18;11.07;;;5.82;;
21444;SDS011;10883;51.946;20.140;2023-03-23T16:13:45;6.50;;;3.95;;
21444;SDS011;10883;51.946;20.140;2023-03-23T16:16:13;16.35;;;7.05;;
21444;SDS011;10883;51.946;20.140;2023-03-23T16:18:46;6.25;;;4.00;;
21444;SDS011;10883;51.946;20.140;2023-03-23T16:21:13;35.90;;;16.10;;
21444;SDS011;10883;51.946;20.140;2023-03-23T16:23:39;16.55;;;8.10;;
21444;SDS011;10883;51.946;20.140;2023-03-23T16:26:08;9.00;;;4.55;;
21444;SDS011;10883;51.946;20.140;2023-03-23T16:28:34;10.82;;;4.00;;
21444;SDS011;10883;51.946;20.140;2023-03-23T16:31:00;8.20;;;5.00;;